createdAt,value
2019-06-10T00:01:21.486Z,4.00
2019-06-10T00:03:52.236Z,3.00
2019-06-10T00:06:22.392Z,3.20
2019-06-10T00:08:52.524Z,4.00
2019-06-10T00:11:23.212Z,3.00
2019-06-10T00:13:54.347Z,5.20
2019-06-10T00:16:24.494Z,3.80
2019-06-10T00:18:55.311Z,2.80
2019-06-10T00:21:25.560Z,3.00
2019-06-10T00:23:55.887Z,3.80
2019-06-10T00:26:26.192Z,3.00
2019-06-10T00:28:56.527Z,2.20
2019-06-10T00:31:26.730Z,3.00
2019-06-10T00:33:58.606Z,3.20
2019-06-10T00:36:30.902Z,2.00
2019-06-10T00:39:03.524Z,2.40
2019-06-10T00:41:33.254Z,2.00
2019-06-10T00:44:05.268Z,2.80
2019-06-10T00:46:36.351Z,3.20
2019-06-10T00:49:08.144Z,4.40
2019-06-10T00:51:38.356Z,2.80
2019-06-10T00:54:10.324Z,2.00
2019-06-10T00:56:41.331Z,4.00
2019-06-10T00:59:14.833Z,4.60
2019-06-10T01:01:44.165Z,2.40
2019-06-10T01:04:16.354Z,3.00
2019-06-10T01:06:46.573Z,3.80
2019-06-10T01:09:17.569Z,5.00
2019-06-10T01:11:51.643Z,3.40
2019-06-10T01:14:21.606Z,4.60
2019-06-10T01:16:52.635Z,4.60
2019-06-10T01:19:22.844Z,4.00
2019-06-10T01:21:54.522Z,3.40
2019-06-10T01:24:24.738Z,3.20
2019-06-10T01:26:55.355Z,4.20
2019-06-10T01:29:25.476Z,3.00
2019-06-10T01:31:56.119Z,4.80
2019-06-10T01:34:26.852Z,2.20
2019-06-10T01:36:57.463Z,4.40
2019-06-10T01:39:27.635Z,3.80
2019-06-10T01:41:57.806Z,3.40
2019-06-10T01:44:30.793Z,5.20
2019-06-10T01:47:01.024Z,7.80
2019-06-10T01:49:31.276Z,6.40
2019-06-10T01:52:01.780Z,7.40
2019-06-10T01:54:32.051Z,3.00
2019-06-10T01:57:02.421Z,5.40
2019-06-10T01:59:32.454Z,5.20
2019-06-10T02:02:04.691Z,5.00
2019-06-10T02:04:35.133Z,4.00
2019-06-10T02:07:05.878Z,4.00
2019-06-10T02:09:36.129Z,4.40
2019-06-10T02:12:06.307Z,4.80
2019-06-10T02:14:36.956Z,5.40
2019-06-10T02:17:07.181Z,5.00
2019-06-10T02:19:37.299Z,8.40
2019-06-10T02:22:07.511Z,4.80
2019-06-10T02:24:38.652Z,4.60
2019-06-10T02:27:11.724Z,4.60
2019-06-10T02:29:41.200Z,5.60
2019-06-10T02:32:14.571Z,10.80
2019-06-10T02:35:01.293Z,7.00
2019-06-10T02:37:19.185Z,5.00
2019-06-10T02:39:46.940Z,3.20
2019-06-10T02:42:30.504Z,5.20
2019-06-10T02:44:57.645Z,5.00
2019-06-10T02:47:36.317Z,6.40
2019-06-10T02:50:04.430Z,4.60
2019-06-10T02:52:34.223Z,5.40
2019-06-10T02:55:04.255Z,3.40
2019-06-10T02:57:39.619Z,3.60
2019-06-10T03:00:22.351Z,3.60
2019-06-10T03:02:45.011Z,5.80
2019-06-10T03:05:17.095Z,3.00
2019-06-10T03:07:49.583Z,3.20
2019-06-10T03:10:22.674Z,5.80
2019-06-10T03:12:52.793Z,4.40
2019-06-10T03:15:25.105Z,4.40
2019-06-10T03:17:55.090Z,4.00
2019-06-10T03:20:25.968Z,4.00
2019-06-10T03:22:56.552Z,4.60
2019-06-10T03:25:27.754Z,2.00
2019-06-10T03:27:57.912Z,3.00
2019-06-10T03:30:41.179Z,4.80
2019-06-10T03:33:00.207Z,5.00
2019-06-10T03:35:30.326Z,5.00
2019-06-10T03:38:02.917Z,4.60
2019-06-10T03:40:32.861Z,4.00
2019-06-10T03:43:03.132Z,3.40
2019-06-10T03:45:33.469Z,9.00
2019-06-10T03:48:03.791Z,4.00
2019-06-10T03:50:34.484Z,4.00
2019-06-10T03:53:04.730Z,4.20
2019-06-10T03:55:34.957Z,4.20
2019-06-10T03:58:05.459Z,6.20
2019-06-10T04:00:36.988Z,3.40
2019-06-10T04:03:07.353Z,6.00
2019-06-10T04:05:37.588Z,3.40
2019-06-10T04:08:08.000Z,3.60
2019-06-10T04:10:38.316Z,5.80
2019-06-10T04:13:08.668Z,3.40
2019-06-10T04:15:38.799Z,3.80
2019-06-10T04:18:09.081Z,5.00
2019-06-10T04:20:39.604Z,4.00
2019-06-10T04:23:11.989Z,4.00
2019-06-10T04:25:43.626Z,5.00
2019-06-10T04:28:14.202Z,5.60
2019-06-10T04:30:44.396Z,4.00
2019-06-10T04:33:14.637Z,2.60
2019-06-10T04:35:45.458Z,4.00
2019-06-10T04:38:15.999Z,3.60
2019-06-10T04:40:46.225Z,3.00
2019-06-10T04:43:16.857Z,3.60
2019-06-10T04:45:46.957Z,2.60
2019-06-10T04:48:18.348Z,3.00
2019-06-10T04:50:49.124Z,3.00
2019-06-10T04:53:20.656Z,6.00
2019-06-10T04:55:52.242Z,3.00
2019-06-10T04:58:24.426Z,2.80
2019-06-10T05:00:54.540Z,6.60
2019-06-10T05:03:26.497Z,4.60
2019-06-10T05:05:56.427Z,2.60
2019-06-10T05:08:28.145Z,2.80
2019-06-10T05:10:58.507Z,6.20
2019-06-10T05:13:29.895Z,5.00
2019-06-10T05:16:03.312Z,7.00
2019-06-10T05:18:33.244Z,4.80
2019-06-10T05:21:04.003Z,4.40
2019-06-10T05:23:34.514Z,2.40
2019-06-10T05:26:04.749Z,2.20
2019-06-10T05:28:34.884Z,4.40
2019-06-10T05:31:05.797Z,2.00
2019-06-10T05:33:36.927Z,2.00
2019-06-10T05:36:07.692Z,2.00
2019-06-10T05:38:37.930Z,2.00
2019-06-10T05:41:08.139Z,4.20
2019-06-10T05:43:38.376Z,2.00
2019-06-10T05:46:08.668Z,2.00
2019-06-10T05:48:38.980Z,2.60
2019-06-10T05:51:12.224Z,2.60
2019-06-10T05:53:42.665Z,1.00
2019-06-10T05:56:14.073Z,2.00
2019-06-10T05:58:44.371Z,2.20
2019-06-10T06:01:14.199Z,1.80
2019-06-10T06:03:44.546Z,0.80
2019-06-10T06:06:14.475Z,1.60
2019-06-10T06:08:44.543Z,2.00
2019-06-10T06:11:14.579Z,1.00
2019-06-10T06:13:44.804Z,3.00
2019-06-10T06:16:15.317Z,1.40
2019-06-10T06:18:45.859Z,2.00
2019-06-10T06:21:25.714Z,3.60
2019-06-10T06:23:47.986Z,2.00
2019-06-10T06:26:18.264Z,2.20
2019-06-10T06:28:48.803Z,2.60
2019-06-10T06:31:19.782Z,2.80
2019-06-10T06:33:52.684Z,6.80
2019-06-10T06:36:22.625Z,3.00
2019-06-10T06:38:53.469Z,3.00
2019-06-10T06:41:23.692Z,1.00
2019-06-10T06:43:54.121Z,5.00
2019-06-10T06:46:24.769Z,1.80
2019-06-10T06:48:55.455Z,3.20
2019-06-10T06:51:38.959Z,3.40
2019-06-10T06:53:57.887Z,3.00
2019-06-10T06:56:28.869Z,3.40
2019-06-10T06:58:59.525Z,3.00
2019-06-10T07:01:32.915Z,1.80
2019-06-10T07:04:02.661Z,5.80
2019-06-10T07:06:35.500Z,3.20
2019-06-10T07:09:08.217Z,6.60
2019-06-10T07:11:40.298Z,1.40
2019-06-10T07:14:13.294Z,3.00
2019-06-10T07:16:46.168Z,3.40
2019-06-10T07:19:15.345Z,2.00
2019-06-10T07:22:07.461Z,2.20
2019-06-10T07:24:18.032Z,4.00
2019-06-10T07:26:52.115Z,5.00
2019-06-10T07:29:22.572Z,3.80
2019-06-10T07:31:54.455Z,2.80
2019-06-10T07:34:24.652Z,4.00
2019-06-10T07:36:55.288Z,7.40
2019-06-10T07:39:25.515Z,6.60
2019-06-10T07:41:56.018Z,7.80
2019-06-10T07:44:26.551Z,6.40
2019-06-10T07:46:56.683Z,8.60
2019-06-10T07:49:27.316Z,5.60
2019-06-10T07:52:12.002Z,8.20
2019-06-10T07:54:29.300Z,9.60
2019-06-10T07:57:02.274Z,8.60
2019-06-10T07:59:32.253Z,5.00
2019-06-10T08:02:04.447Z,7.80
2019-06-10T08:04:35.220Z,5.00
2019-06-10T08:07:06.527Z,3.60
2019-06-10T08:09:37.394Z,13.60
2019-06-10T08:12:07.921Z,5.80
2019-06-10T08:14:38.103Z,9.20
2019-06-10T08:17:08.340Z,9.00
2019-06-10T08:19:43.125Z,9.00
2019-06-10T08:22:13.042Z,6.00
2019-06-10T08:24:45.200Z,8.60
2019-06-10T08:27:14.958Z,8.20
2019-06-10T08:29:48.041Z,8.00
2019-06-10T08:32:17.202Z,11.80
2019-06-10T08:34:48.871Z,7.60
2019-06-10T08:37:19.222Z,12.80
2019-06-10T08:39:52.954Z,15.00
2019-06-10T08:42:23.314Z,13.20
2019-06-10T08:44:53.573Z,12.00
2019-06-10T08:47:23.777Z,10.40
2019-06-10T08:49:53.898Z,10.00
2019-06-10T08:52:24.352Z,6.20
2019-06-10T08:54:54.738Z,15.00
2019-06-10T08:57:25.235Z,11.20
2019-06-10T08:59:56.133Z,8.60
2019-06-10T09:02:26.362Z,15.00
2019-06-10T09:04:56.755Z,13.20
2019-06-10T09:07:27.517Z,9.00
2019-06-10T09:09:57.646Z,7.40
2019-06-10T09:12:33.214Z,8.40
2019-06-10T09:15:00.090Z,14.80
2019-06-10T09:17:33.753Z,12.40
2019-06-10T09:20:02.961Z,13.40
2019-06-10T09:22:33.322Z,13.80
2019-06-10T09:25:04.037Z,19.60
2019-06-10T09:27:34.352Z,13.80
2019-06-10T09:30:06.642Z,12.80
2019-06-10T09:32:37.191Z,20.00
2019-06-10T09:35:08.917Z,13.20
2019-06-10T09:37:40.011Z,14.00
2019-06-10T09:40:12.627Z,28.80
2019-06-10T09:42:46.974Z,17.40
2019-06-10T09:45:15.223Z,15.80
2019-06-10T09:47:49.247Z,13.60
2019-06-10T09:50:18.638Z,20.40
2019-06-10T09:52:53.434Z,18.60
2019-06-10T09:55:23.754Z,20.80
2019-06-10T09:57:59.787Z,20.40
2019-06-10T10:00:47.536Z,27.80
2019-06-10T10:03:15.854Z,19.60
2019-06-10T10:05:59.433Z,23.60
2019-06-10T10:08:18.284Z,23.20
2019-06-10T10:10:51.971Z,21.60
2019-06-10T10:13:22.536Z,14.20
2019-06-10T10:15:54.367Z,10.40
2019-06-10T10:18:24.589Z,24.60
2019-06-10T10:20:59.212Z,20.80
2019-06-10T10:23:26.787Z,19.80
2019-06-10T10:25:57.365Z,20.00
2019-06-10T10:28:27.529Z,21.80
2019-06-10T10:30:58.267Z,23.20
2019-06-10T10:33:30.165Z,18.40
2019-06-10T10:36:02.580Z,36.40
2019-06-10T10:38:34.429Z,25.80
2019-06-10T10:41:04.777Z,30.60
2019-06-10T10:43:37.660Z,34.20
2019-06-10T10:46:07.487Z,35.40
2019-06-10T10:48:37.900Z,28.60
2019-06-10T10:51:08.028Z,36.00
2019-06-10T10:53:39.041Z,32.60
2019-06-10T10:56:09.546Z,38.80
2019-06-10T10:58:39.838Z,33.40
2019-06-10T11:01:10.041Z,29.00
2019-06-10T11:03:42.867Z,35.00
2019-06-10T11:06:12.869Z,30.00
2019-06-10T11:08:45.341Z,29.00
2019-06-10T11:11:16.075Z,25.80
2019-06-10T11:13:47.473Z,30.60
2019-06-10T11:16:17.726Z,31.40
2019-06-10T11:18:49.304Z,29.40
2019-06-10T11:21:19.790Z,30.40
2019-06-10T11:23:53.796Z,41.40
2019-06-10T11:26:24.764Z,48.20
2019-06-10T11:28:55.651Z,37.20
2019-06-10T11:31:26.205Z,37.60
2019-06-10T11:33:58.989Z,39.40
2019-06-10T11:36:28.518Z,49.80
2019-06-10T11:38:59.225Z,51.20
2019-06-10T11:41:29.460Z,32.00
2019-06-10T11:44:00.667Z,41.00
2019-06-10T11:46:33.063Z,34.00
2019-06-10T11:49:03.902Z,20.40
2019-06-10T11:51:34.743Z,25.20
2019-06-10T11:54:05.169Z,18.80
2019-06-10T11:56:35.470Z,10.40
2019-06-10T11:59:09.616Z,15.20
2019-06-10T12:01:37.464Z,11.00
2019-06-10T12:04:07.984Z,11.80
2019-06-10T12:06:38.675Z,8.00
2019-06-10T12:09:09.730Z,10.60
2019-06-10T12:11:40.761Z,9.60
2019-06-10T12:14:12.944Z,6.80
2019-06-10T12:19:14.923Z,6.00
2019-06-10T12:21:45.150Z,6.60
2019-06-10T12:24:16.361Z,5.00
2019-06-10T12:26:47.395Z,6.00
2019-06-10T12:29:18.350Z,7.40
2019-06-10T12:31:48.776Z,3.40
2019-06-10T12:34:19.444Z,5.00
2019-06-10T12:36:55.487Z,6.80
2019-06-10T12:39:23.024Z,1.00
2019-06-10T12:41:57.562Z,3.40
2019-06-10T12:44:25.174Z,3.60
2019-06-10T12:46:57.967Z,2.60
2019-06-10T12:49:28.316Z,3.00
2019-06-10T12:51:59.255Z,2.00
2019-06-10T12:54:30.079Z,5.40
2019-06-10T12:57:00.671Z,1.00
2019-06-10T12:59:32.659Z,2.20
2019-06-10T13:02:15.571Z,5.00
2019-06-10T13:04:34.880Z,3.00
2019-06-10T13:07:06.835Z,2.40
2019-06-10T13:09:37.978Z,2.80
2019-06-10T13:12:08.313Z,1.40
2019-06-10T13:14:38.539Z,5.20
2019-06-10T13:17:08.731Z,5.80
2019-06-10T13:19:39.049Z,1.00
2019-06-10T13:22:09.606Z,1.00
2019-06-10T13:24:42.403Z,1.80
2019-06-10T13:27:12.254Z,3.00
2019-06-10T13:29:43.622Z,1.80
2019-06-10T13:32:14.040Z,0.60
2019-06-10T13:34:45.332Z,1.20
2019-06-10T13:37:16.293Z,1.00
2019-06-10T13:39:46.993Z,2.00
2019-06-10T13:42:22.520Z,2.00
2019-06-10T13:44:52.413Z,3.80
2019-06-10T13:47:26.052Z,2.00
2019-06-10T13:49:55.232Z,5.00
2019-06-10T13:52:25.349Z,1.60
2019-06-10T13:54:55.952Z,1.80
2019-06-10T13:57:26.987Z,1.00
2019-06-10T13:59:57.260Z,2.20
2019-06-10T14:02:27.474Z,3.00
2019-06-10T14:04:57.799Z,3.00
2019-06-10T14:07:27.936Z,2.00
2019-06-10T14:09:58.211Z,2.00
2019-06-10T14:12:28.657Z,1.00
2019-06-10T14:14:58.973Z,1.00
2019-06-10T14:17:29.072Z,1.60
2019-06-10T14:19:59.329Z,1.00
2019-06-10T14:22:29.565Z,1.00
2019-06-10T14:24:59.773Z,1.00
2019-06-10T14:27:30.375Z,3.00
2019-06-10T14:30:02.829Z,2.80
2019-06-10T14:32:32.946Z,4.60
2019-06-10T14:35:03.517Z,1.00
2019-06-10T14:37:39.192Z,2.40
2019-06-10T14:40:14.880Z,1.80
2019-06-10T14:42:43.397Z,1.00
2019-06-10T14:45:16.423Z,0.60
2019-06-10T14:47:45.586Z,1.60
2019-06-10T14:50:17.295Z,1.00
2019-06-10T14:52:48.578Z,2.20
2019-06-10T14:55:19.093Z,2.00
2019-06-10T14:57:49.961Z,2.80
2019-06-10T15:00:20.080Z,0.20
2019-06-10T15:02:53.409Z,1.00
2019-06-10T15:05:23.227Z,3.00
2019-06-10T15:07:53.886Z,0.00
2019-06-10T15:10:24.014Z,0.00
2019-06-10T15:12:54.589Z,3.00
2019-06-10T15:15:25.203Z,2.20
2019-06-10T15:17:55.581Z,2.00
2019-06-10T15:20:26.270Z,1.60
2019-06-10T15:22:56.782Z,0.60
2019-06-10T15:25:28.289Z,0.40
2019-06-10T15:27:59.248Z,1.00
2019-06-10T15:30:32.030Z,0.00
2019-06-10T15:33:03.011Z,2.00
2019-06-10T15:35:34.096Z,4.40
2019-06-10T15:38:04.354Z,2.60
2019-06-10T15:40:35.132Z,1.40
2019-06-10T15:43:06.358Z,1.80
2019-06-10T15:45:36.660Z,2.60
2019-06-10T15:48:07.579Z,4.60
2019-06-10T15:50:38.112Z,5.40
2019-06-10T15:53:08.625Z,3.00
2019-06-10T15:56:05.851Z,4.60
2019-06-10T15:58:12.904Z,6.80
2019-06-10T16:00:43.506Z,6.60
2019-06-10T16:03:17.017Z,2.40
2019-06-10T16:05:46.374Z,5.60
2019-06-10T16:08:18.471Z,4.20
2019-06-10T16:10:52.630Z,2.80
2019-06-10T16:13:25.537Z,1.00
2019-06-10T16:15:54.394Z,5.00
2019-06-10T16:18:27.945Z,5.40
2019-06-10T16:20:56.287Z,2.00
2019-06-10T16:23:26.885Z,3.40
2019-06-10T16:25:57.232Z,1.40
2019-06-10T16:28:27.935Z,2.00
2019-06-10T16:30:58.776Z,2.00
2019-06-10T16:33:29.120Z,3.80
2019-06-10T16:35:59.227Z,3.00
2019-06-10T16:38:29.456Z,2.40
2019-06-10T16:41:00.276Z,3.00
2019-06-10T16:43:33.224Z,2.60
2019-06-10T16:46:03.409Z,3.80
2019-06-10T16:48:33.828Z,2.80
2019-06-10T16:51:05.158Z,1.00
2019-06-10T16:53:35.902Z,3.20
2019-06-10T16:56:06.225Z,1.80
2019-06-10T16:58:36.451Z,2.00
2019-06-10T17:01:06.852Z,1.80
2019-06-10T17:03:37.341Z,1.40
2019-06-10T17:06:08.010Z,0.00
2019-06-10T17:08:38.858Z,1.20
2019-06-10T17:11:09.191Z,1.00
2019-06-10T17:13:39.421Z,1.00
2019-06-10T17:16:09.511Z,1.00
2019-06-10T17:18:39.768Z,0.80
2019-06-10T17:21:13.034Z,0.00
2019-06-10T17:23:43.437Z,1.80
2019-06-10T17:26:13.858Z,3.00
2019-06-10T17:28:44.028Z,1.00
2019-06-10T17:31:14.252Z,2.00
2019-06-10T17:33:44.872Z,3.00
2019-06-10T17:36:15.015Z,1.00
2019-06-10T17:38:45.600Z,2.60
2019-06-10T17:41:16.395Z,2.00
2019-06-10T17:43:47.225Z,1.00
2019-06-10T17:46:17.415Z,1.20
2019-06-10T17:48:48.123Z,2.00
2019-06-10T17:51:18.557Z,2.40
2019-06-10T17:53:49.283Z,1.00
2019-06-10T17:56:19.523Z,1.00
2019-06-10T17:58:54.955Z,1.00
2019-06-10T18:01:22.551Z,1.00
2019-06-10T18:03:53.587Z,0.60
2019-06-10T18:06:25.435Z,0.20
2019-06-10T18:08:55.939Z,1.00
2019-06-10T18:11:26.448Z,1.00
2019-06-10T18:13:56.919Z,2.00
2019-06-10T18:16:28.227Z,1.40
2019-06-10T18:18:58.608Z,0.00
2019-06-10T18:21:28.753Z,2.00
2019-06-10T18:24:07.252Z,0.00
2019-06-10T18:26:31.497Z,3.40
2019-06-10T18:29:08.104Z,0.00
2019-06-10T18:31:35.697Z,0.00
2019-06-10T18:34:06.357Z,0.00
2019-06-10T18:36:37.699Z,0.00
2019-06-10T18:39:08.354Z,1.00
2019-06-10T18:41:39.888Z,0.00
2019-06-10T18:44:19.965Z,0.00
2019-06-10T18:46:43.273Z,2.00
2019-06-10T18:49:14.208Z,1.00
2019-06-10T18:51:44.750Z,1.00
2019-06-10T18:54:14.924Z,0.00
2019-06-10T18:56:45.534Z,1.00
2019-06-10T18:59:20.691Z,1.40
2019-06-10T19:01:47.769Z,1.20
2019-06-10T19:04:18.220Z,0.00
2019-06-10T19:06:49.084Z,1.60
2019-06-10T19:09:19.340Z,0.20
2019-06-10T19:11:50.204Z,1.20
2019-06-10T19:14:20.654Z,0.00
2019-06-10T19:16:52.448Z,1.00
2019-06-10T19:19:23.240Z,1.00
2019-06-10T19:22:04.608Z,1.20
2019-06-10T19:24:25.252Z,0.60
2019-06-10T19:26:58.350Z,1.40
2019-06-10T19:29:33.753Z,2.00
2019-06-10T19:31:58.961Z,1.20
2019-06-10T19:34:29.167Z,0.20
2019-06-10T19:36:59.488Z,0.00
2019-06-10T19:39:32.828Z,1.00
2019-06-10T19:42:02.824Z,0.00
2019-06-10T19:44:35.183Z,3.00
2019-06-10T19:47:05.616Z,3.00
2019-06-10T19:49:36.752Z,1.00
2019-06-10T19:52:07.876Z,1.00
2019-06-10T19:54:39.038Z,0.00
2019-06-10T19:57:09.602Z,6.80
2019-06-10T20:00:02.826Z,2.00
2019-06-10T20:02:12.482Z,0.20
2019-06-10T20:04:45.273Z,1.00
2019-06-10T20:07:14.639Z,1.60
2019-06-10T20:09:46.305Z,1.80
2019-06-10T20:12:17.052Z,0.40
2019-06-10T20:14:52.735Z,1.00
2019-06-10T20:17:22.782Z,1.60
2019-06-10T20:19:53.536Z,0.20
2019-06-10T20:22:23.772Z,1.00
2019-06-10T20:24:53.980Z,2.00
2019-06-10T20:27:24.122Z,2.00
2019-06-10T20:30:07.857Z,2.20
2019-06-10T20:32:26.796Z,1.00
2019-06-10T20:34:57.533Z,1.00
2019-06-10T20:37:28.160Z,0.00
2019-06-10T20:39:58.312Z,1.00
2019-06-10T20:42:28.833Z,1.60
2019-06-10T20:44:59.434Z,1.40
2019-06-10T20:47:29.593Z,0.20
2019-06-10T20:50:02.557Z,1.00
2019-06-10T20:52:32.587Z,0.00
2019-06-10T20:55:03.239Z,0.80
2019-06-10T20:57:47.049Z,0.60
2019-06-10T21:00:19.682Z,1.00
2019-06-10T21:02:41.629Z,1.00
2019-06-10T21:05:13.338Z,1.00
2019-06-10T21:07:45.707Z,2.00
2019-06-10T21:10:18.406Z,1.00
2019-06-10T21:12:49.796Z,1.00
2019-06-10T21:15:22.828Z,2.40
2019-06-10T21:17:52.804Z,2.00
2019-06-10T21:20:23.429Z,1.60
2019-06-10T21:22:53.869Z,1.00
2019-06-10T21:25:24.712Z,0.80
2019-06-10T21:27:54.955Z,1.00
2019-06-10T21:30:36.930Z,0.40
2019-06-10T21:32:57.239Z,2.00
2019-06-10T21:35:27.544Z,1.00
2019-06-10T21:37:57.766Z,0.00
2019-06-10T21:40:27.911Z,1.20
2019-06-10T21:42:58.719Z,1.00
2019-06-10T21:45:29.368Z,2.00
2019-06-10T21:48:02.200Z,1.40
2019-06-10T21:50:33.349Z,1.20
2019-06-10T21:53:04.249Z,1.20
2019-06-10T21:55:34.836Z,2.00
2019-06-10T21:58:04.960Z,0.80
2019-06-10T22:00:51.993Z,1.00
2019-06-10T22:03:12.537Z,1.00
2019-06-10T22:05:44.191Z,0.00
2019-06-10T22:08:14.850Z,0.40
2019-06-10T22:10:45.908Z,1.00
2019-06-10T22:13:16.546Z,3.00
2019-06-10T22:15:48.259Z,0.00
2019-06-10T22:18:19.034Z,1.00
2019-06-10T22:20:51.584Z,0.80
2019-06-10T22:23:23.196Z,0.80
2019-06-10T22:25:55.963Z,0.00
2019-06-10T22:28:25.849Z,3.00
2019-06-10T22:31:14.633Z,1.00
2019-06-10T22:33:27.909Z,1.00
2019-06-10T22:35:58.426Z,0.20
2019-06-10T22:38:28.888Z,1.00
2019-06-10T22:40:59.311Z,0.80
2019-06-10T22:43:29.548Z,0.00
2019-06-10T22:46:00.383Z,1.00
2019-06-10T22:48:33.118Z,0.00
2019-06-10T22:51:02.772Z,1.00
2019-06-10T22:53:33.511Z,2.00
2019-06-10T22:56:03.739Z,1.00
2019-06-10T22:58:34.363Z,0.60
2019-06-10T23:01:04.528Z,1.60
2019-06-10T23:03:35.095Z,0.40
2019-06-10T23:06:05.636Z,0.00
2019-06-10T23:08:36.855Z,0.20
2019-06-10T23:11:06.684Z,0.20
2019-06-10T23:13:37.816Z,0.60
2019-06-10T23:16:08.338Z,1.00
2019-06-10T23:18:38.476Z,0.00
2019-06-10T23:21:08.720Z,2.20
2019-06-10T23:23:39.930Z,0.00
2019-06-10T23:26:12.940Z,1.00
2019-06-10T23:28:42.187Z,0.00
2019-06-10T23:31:12.746Z,1.00
2019-06-10T23:33:43.271Z,0.00
2019-06-10T23:36:14.011Z,0.60
2019-06-10T23:38:44.648Z,0.00
2019-06-10T23:41:14.780Z,0.00
2019-06-10T23:43:45.419Z,0.40
2019-06-10T23:46:16.238Z,0.00
2019-06-10T23:48:46.366Z,0.80
2019-06-10T23:51:17.203Z,0.00
2019-06-10T23:53:48.172Z,0.00
2019-06-10T23:56:18.266Z,0.00
2019-06-10T23:58:49.396Z,0.00
